createdAt,value
2023-04-22T00:00:12.121Z,1003.70
2023-04-22T00:01:12.149Z,1003.67
2023-04-22T00:02:12.214Z,1003.71
2023-04-22T00:03:12.388Z,1003.78
2023-04-22T00:04:12.438Z,1003.84
2023-04-22T00:05:12.351Z,1003.90
2023-04-22T00:06:12.279Z,1003.89
2023-04-22T00:07:12.299Z,1003.87
2023-04-22T00:08:12.318Z,1003.86
2023-04-22T00:09:12.352Z,1003.89
2023-04-22T00:10:12.365Z,1003.95
2023-04-22T00:11:12.397Z,1003.93
2023-04-22T00:12:12.439Z,1004.01
2023-04-22T00:13:12.442Z,1004.03
2023-04-22T00:14:12.519Z,1004.05
2023-04-22T00:15:12.487Z,1004.10
2023-04-22T00:16:12.535Z,1004.19
2023-04-22T00:17:12.537Z,1004.26
2023-04-22T00:18:12.564Z,1004.24
2023-04-22T00:19:12.681Z,1004.28
2023-04-22T00:20:12.614Z,1004.25
2023-04-22T00:21:12.640Z,1004.23
2023-04-22T00:22:12.661Z,1004.23
2023-04-22T00:23:12.739Z,1004.12
2023-04-22T00:24:12.710Z,1004.07
2023-04-22T00:25:12.731Z,1004.00
2023-04-22T00:26:12.757Z,1003.90
2023-04-22T00:27:12.787Z,1003.79
2023-04-22T00:28:12.833Z,1003.74
2023-04-22T00:29:12.831Z,1003.73
2023-04-22T00:30:12.859Z,1003.68
2023-04-22T00:31:12.908Z,1003.64
2023-04-22T00:32:12.902Z,1003.59
2023-04-22T00:33:12.985Z,1003.55
2023-04-22T00:34:12.950Z,1003.48
2023-04-22T00:35:12.977Z,1003.45
2023-04-22T00:36:13.000Z,1003.44
2023-04-22T00:37:13.030Z,1003.40
2023-04-22T00:38:13.052Z,1003.41
2023-04-22T00:39:13.088Z,1003.39
2023-04-22T00:40:13.100Z,1003.45
2023-04-22T00:41:13.129Z,1003.44
2023-04-22T00:42:13.151Z,1003.42
2023-04-22T00:43:13.174Z,1003.49
2023-04-22T00:44:13.194Z,1003.51
2023-04-22T00:45:13.219Z,1003.46
2023-04-22T00:46:13.263Z,1003.42
2023-04-22T00:47:13.323Z,1003.46
2023-04-22T00:48:13.345Z,1003.42
2023-04-22T00:49:13.326Z,1003.44
2023-04-22T00:50:13.352Z,1003.43
2023-04-22T00:51:13.412Z,1003.39
2023-04-22T00:52:13.412Z,1003.39
2023-04-22T00:53:13.415Z,1003.38
2023-04-22T00:54:13.455Z,1003.36
2023-04-22T00:55:13.475Z,1003.37
2023-04-22T00:56:13.516Z,1003.36
2023-04-22T00:57:13.557Z,1003.36
2023-04-22T00:58:13.559Z,1003.32
2023-04-22T00:59:13.557Z,1003.28
2023-04-22T01:00:13.607Z,1003.32
2023-04-22T01:01:13.637Z,1003.31
2023-04-22T01:02:13.725Z,1003.30
2023-04-22T01:03:13.841Z,1003.29
2023-04-22T01:04:13.823Z,1003.26
2023-04-22T01:05:13.724Z,1003.29
2023-04-22T01:06:13.755Z,1003.27
2023-04-22T01:07:13.766Z,1003.26
2023-04-22T01:08:13.798Z,1003.27
2023-04-22T01:09:13.836Z,1003.29
2023-04-22T01:10:13.854Z,1003.33
2023-04-22T01:11:13.858Z,1003.33
2023-04-22T01:12:13.892Z,1003.33
2023-04-22T01:13:13.909Z,1003.32
2023-04-22T01:14:13.925Z,1003.31
2023-04-22T01:15:13.960Z,1003.30
2023-04-22T01:16:14.037Z,1003.30
2023-04-22T01:17:14.001Z,1003.29
2023-04-22T01:18:14.027Z,1003.28
2023-04-22T01:19:14.044Z,1003.27
2023-04-22T01:20:14.067Z,1003.25
2023-04-22T01:21:14.082Z,1003.26
2023-04-22T01:22:14.123Z,1003.26
2023-04-22T01:23:14.136Z,1003.27
2023-04-22T01:24:14.159Z,1003.26
2023-04-22T01:25:14.180Z,1003.30
2023-04-22T01:26:14.232Z,1003.28
2023-04-22T01:27:14.233Z,1003.27
2023-04-22T01:28:14.250Z,1003.24
2023-04-22T01:29:14.277Z,1003.25
2023-04-22T01:30:14.299Z,1003.23
2023-04-22T01:31:14.321Z,1003.20
2023-04-22T01:32:14.380Z,1003.22
2023-04-22T01:33:14.404Z,1003.22
2023-04-22T01:34:14.507Z,1003.19
2023-04-22T01:35:14.416Z,1003.21
2023-04-22T01:36:14.446Z,1003.19
2023-04-22T01:37:14.467Z,1003.18
2023-04-22T01:38:14.485Z,1003.17
2023-04-22T01:39:14.512Z,1003.20
2023-04-22T01:40:14.550Z,1003.18
2023-04-22T01:41:14.565Z,1003.22
2023-04-22T01:42:14.589Z,1003.18
2023-04-22T01:43:14.609Z,1003.21
2023-04-22T01:44:14.628Z,1003.23
2023-04-22T01:45:14.651Z,1003.23
2023-04-22T01:46:14.694Z,1003.22
2023-04-22T01:47:14.708Z,1003.20
2023-04-22T01:48:14.774Z,1003.21
2023-04-22T01:49:14.746Z,1003.19
2023-04-22T01:50:14.781Z,1003.19
2023-04-22T01:51:14.798Z,1003.18
2023-04-22T01:52:14.821Z,1003.20
2023-04-22T01:53:14.841Z,1003.18
2023-04-22T01:54:14.884Z,1003.23
2023-04-22T01:55:14.917Z,1003.23
2023-04-22T01:56:14.938Z,1003.26
2023-04-22T01:57:14.949Z,1003.23
2023-04-22T01:58:14.958Z,1003.23
2023-04-22T01:59:14.982Z,1003.25
2023-04-22T02:00:15.002Z,1003.24
2023-04-22T02:01:15.047Z,1003.18
2023-04-22T02:02:15.119Z,1003.16
2023-04-22T02:03:15.175Z,1003.22
2023-04-22T02:04:15.125Z,1003.13
2023-04-22T02:05:15.181Z,1003.18
2023-04-22T02:06:15.149Z,1003.21
2023-04-22T02:07:15.172Z,1003.21
2023-04-22T02:08:15.193Z,1003.24
2023-04-22T02:09:15.221Z,1003.21
2023-04-22T02:10:15.239Z,1003.23
2023-04-22T02:11:15.260Z,1003.26
2023-04-22T02:12:15.284Z,1003.25
2023-04-22T02:13:15.310Z,1003.27
2023-04-22T02:14:15.330Z,1003.29
2023-04-22T02:15:15.351Z,1003.29
2023-04-22T02:16:15.415Z,1003.32
2023-04-22T02:17:15.398Z,1003.32
2023-04-22T02:18:15.421Z,1003.31
2023-04-22T02:19:15.463Z,1003.32
2023-04-22T02:20:15.553Z,1003.35
2023-04-22T02:21:15.492Z,1003.37
2023-04-22T02:22:15.517Z,1003.32
2023-04-22T02:23:15.547Z,1003.34
2023-04-22T02:24:15.566Z,1003.32
2023-04-22T02:25:15.585Z,1003.28
2023-04-22T02:26:15.609Z,1003.30
2023-04-22T02:27:15.641Z,1003.28
2023-04-22T02:28:15.654Z,1003.31
2023-04-22T02:29:15.679Z,1003.31
2023-04-22T02:30:15.701Z,1003.29
2023-04-22T02:31:15.744Z,1003.30
2023-04-22T02:32:15.747Z,1003.33
2023-04-22T02:33:15.791Z,1003.38
2023-04-22T02:34:15.795Z,1003.32
2023-04-22T02:35:15.817Z,1003.36
2023-04-22T02:36:15.839Z,1003.31
2023-04-22T02:37:15.870Z,1003.34
2023-04-22T02:38:15.896Z,1003.35
2023-04-22T02:39:15.911Z,1003.37
2023-04-22T02:40:15.932Z,1003.34
2023-04-22T02:41:15.962Z,1003.27
2023-04-22T02:42:15.983Z,1003.31
2023-04-22T02:43:16.003Z,1003.33
2023-04-22T02:44:16.033Z,1003.31
2023-04-22T02:45:16.054Z,1003.34
2023-04-22T02:46:16.169Z,1003.36
2023-04-22T02:47:16.096Z,1003.32
2023-04-22T02:48:16.122Z,1003.34
2023-04-22T02:49:16.141Z,1003.31
2023-04-22T02:50:16.166Z,1003.36
2023-04-22T02:51:16.195Z,1003.30
2023-04-22T02:52:16.219Z,1003.32
2023-04-22T02:53:16.239Z,1003.28
2023-04-22T02:54:16.260Z,1003.30
2023-04-22T02:55:16.282Z,1003.28
2023-04-22T02:56:16.331Z,1003.31
2023-04-22T02:57:16.334Z,1003.28
2023-04-22T02:58:16.360Z,1003.26
2023-04-22T02:59:16.377Z,1003.23
2023-04-22T03:00:16.401Z,1003.22
2023-04-22T03:01:16.449Z,1003.18
2023-04-22T03:02:16.533Z,1003.17
2023-04-22T03:03:16.627Z,1003.20
2023-04-22T03:04:16.641Z,1003.15
2023-04-22T03:05:16.529Z,1003.12
2023-04-22T03:06:16.575Z,1003.15
2023-04-22T03:07:16.561Z,1003.08
2023-04-22T03:08:16.588Z,1003.11
2023-04-22T03:09:16.608Z,1003.10
2023-04-22T03:10:16.646Z,1003.08
2023-04-22T03:11:16.665Z,1003.08
2023-04-22T03:12:16.685Z,1003.07
2023-04-22T03:13:16.704Z,1003.11
2023-04-22T03:14:16.741Z,1003.14
2023-04-22T03:15:18.781Z,1003.16
2023-04-22T03:16:16.832Z,1003.13
2023-04-22T03:17:16.796Z,1003.14
2023-04-22T03:18:16.816Z,1003.14
2023-04-22T03:19:16.853Z,1003.11
2023-04-22T03:20:16.867Z,1003.14
2023-04-22T03:21:16.890Z,1003.14
2023-04-22T03:22:16.917Z,1003.14
2023-04-22T03:23:16.935Z,1003.15
2023-04-22T03:24:16.958Z,1003.17
2023-04-22T03:25:16.982Z,1003.13
2023-04-22T03:26:17.018Z,1003.14
2023-04-22T03:27:17.033Z,1003.13
2023-04-22T03:28:17.067Z,1003.18
2023-04-22T03:29:17.073Z,1003.21
2023-04-22T03:30:17.099Z,1003.19
2023-04-22T03:31:17.121Z,1003.21
2023-04-22T03:32:17.235Z,1003.19
2023-04-22T03:33:17.215Z,1003.19
2023-04-22T03:34:17.194Z,1003.17
2023-04-22T03:35:17.215Z,1003.19
2023-04-22T03:36:17.246Z,1003.21
2023-04-22T03:37:17.265Z,1003.20
2023-04-22T03:38:17.279Z,1003.22
2023-04-22T03:39:17.307Z,1003.22
2023-04-22T03:40:17.336Z,1003.20
2023-04-22T03:41:17.356Z,1003.17
2023-04-22T03:42:17.387Z,1003.15
2023-04-22T03:43:17.399Z,1003.11
2023-04-22T03:44:17.424Z,1003.11
2023-04-22T03:45:17.449Z,1003.11
2023-04-22T03:46:17.497Z,1003.09
2023-04-22T03:47:17.499Z,1003.08
2023-04-22T03:48:17.518Z,1003.10
2023-04-22T03:49:17.539Z,1003.07
2023-04-22T03:50:17.570Z,1003.08
2023-04-22T03:51:17.600Z,1003.08
2023-04-22T03:52:17.610Z,1003.10
2023-04-22T03:53:17.633Z,1003.07
2023-04-22T03:54:17.656Z,1003.07
2023-04-22T03:55:17.679Z,1003.09
2023-04-22T03:56:17.715Z,1003.03
2023-04-22T03:57:17.732Z,1003.02
2023-04-22T03:58:17.756Z,1003.01
2023-04-22T03:59:17.774Z,1002.98
2023-04-22T04:00:17.791Z,1003.01
2023-04-22T04:01:17.817Z,1002.98
2023-04-22T04:02:17.987Z,1003.01
2023-04-22T04:03:18.022Z,1003.02
2023-04-22T04:04:18.186Z,1003.04
2023-04-22T04:05:17.966Z,1003.05
2023-04-22T04:06:17.929Z,1003.03
2023-04-22T04:07:17.953Z,1003.02
2023-04-22T04:08:17.975Z,1003.02
2023-04-22T04:09:18.005Z,1002.98
2023-04-22T04:10:18.020Z,1002.98
2023-04-22T04:11:18.041Z,1003.00
2023-04-22T04:12:18.065Z,1002.97
2023-04-22T04:13:18.100Z,1003.00
2023-04-22T04:14:18.131Z,1002.95
2023-04-22T04:15:18.136Z,1002.97
2023-04-22T04:16:18.272Z,1002.97
2023-04-22T04:17:18.200Z,1002.97
2023-04-22T04:18:18.218Z,1002.97
2023-04-22T04:19:18.228Z,1003.00
2023-04-22T04:20:18.284Z,1002.96
2023-04-22T04:21:18.281Z,1002.97
2023-04-22T04:22:18.296Z,1002.96
2023-04-22T04:23:18.322Z,1002.93
2023-04-22T04:24:18.342Z,1002.97
2023-04-22T04:25:18.370Z,1002.93
2023-04-22T04:26:18.439Z,1002.97
2023-04-22T04:27:18.412Z,1002.91
2023-04-22T04:28:18.431Z,1002.91
2023-04-22T04:29:18.454Z,1002.93
2023-04-22T04:30:18.478Z,1002.92
2023-04-22T04:31:18.524Z,1002.89
2023-04-22T04:32:18.523Z,1002.89
2023-04-22T04:33:18.545Z,1002.90
2023-04-22T04:34:18.573Z,1002.88
2023-04-22T04:35:18.599Z,1002.89
2023-04-22T04:36:18.616Z,1002.92
2023-04-22T04:37:18.643Z,1002.91
2023-04-22T04:38:18.657Z,1002.94
2023-04-22T04:39:18.691Z,1002.92
2023-04-22T04:40:18.703Z,1002.91
2023-04-22T04:41:18.764Z,1002.90
2023-04-22T04:42:18.749Z,1002.89
2023-04-22T04:43:18.770Z,1002.88
2023-04-22T04:44:18.793Z,1002.87
2023-04-22T04:45:18.822Z,1002.88
2023-04-22T04:46:18.875Z,1002.87
2023-04-22T04:47:18.992Z,1002.84
2023-04-22T04:48:18.887Z,1002.86
2023-04-22T04:49:18.908Z,1002.85
2023-04-22T04:50:18.934Z,1002.82
2023-04-22T04:51:20.215Z,1002.81
2023-04-22T04:52:18.980Z,1002.79
2023-04-22T04:53:18.997Z,1002.80
2023-04-22T04:54:19.038Z,1002.75
2023-04-22T04:55:19.054Z,1002.74
2023-04-22T04:56:19.073Z,1002.77
2023-04-22T04:57:19.089Z,1002.81
2023-04-22T04:58:19.125Z,1002.78
2023-04-22T04:59:19.146Z,1002.82
2023-04-22T05:00:19.161Z,1002.80
2023-04-22T05:01:19.230Z,1002.81
2023-04-22T05:02:19.305Z,1002.76
2023-04-22T05:03:19.461Z,1002.80
2023-04-22T05:04:19.323Z,1002.79
2023-04-22T05:05:19.281Z,1002.77
2023-04-22T05:06:19.311Z,1002.76
2023-04-22T05:07:19.329Z,1002.76
2023-04-22T05:08:19.348Z,1002.77
2023-04-22T05:09:19.386Z,1002.79
2023-04-22T05:10:19.394Z,1002.78
2023-04-22T05:11:19.424Z,1002.77
2023-04-22T05:12:19.441Z,1002.79
2023-04-22T05:13:19.467Z,1002.82
2023-04-22T05:14:19.512Z,1002.84
2023-04-22T05:15:19.509Z,1002.83
2023-04-22T05:16:19.549Z,1002.84
2023-04-22T05:17:19.589Z,1002.82
2023-04-22T05:18:19.578Z,1002.85
2023-04-22T05:19:19.613Z,1002.84
2023-04-22T05:20:19.624Z,1002.86
2023-04-22T05:21:19.650Z,1002.86
2023-04-22T05:22:19.688Z,1002.88
2023-04-22T05:23:19.696Z,1002.89
2023-04-22T05:24:19.734Z,1002.87
2023-04-22T05:25:19.739Z,1002.90
2023-04-22T05:26:19.765Z,1002.88
2023-04-22T05:27:19.789Z,1002.88
2023-04-22T05:28:19.808Z,1002.88
2023-04-22T05:29:19.836Z,1002.87
2023-04-22T05:30:19.861Z,1002.87
2023-04-22T05:31:19.927Z,1002.84
2023-04-22T05:32:20.001Z,1002.86
2023-04-22T05:33:19.951Z,1002.88
2023-04-22T05:34:20.056Z,1002.90
2023-04-22T05:35:19.980Z,1002.88
2023-04-22T05:36:19.995Z,1002.84
2023-04-22T05:37:20.021Z,1002.89
2023-04-22T05:38:20.055Z,1002.85
2023-04-22T05:39:20.065Z,1002.82
2023-04-22T05:40:20.091Z,1002.80
2023-04-22T05:41:20.114Z,1002.79
2023-04-22T05:42:20.137Z,1002.79
2023-04-22T05:43:20.158Z,1002.81
2023-04-22T05:44:20.186Z,1002.82
2023-04-22T05:45:20.221Z,1002.79
2023-04-22T05:46:20.251Z,1002.81
2023-04-22T05:47:20.340Z,1002.83
2023-04-22T05:48:20.277Z,1002.86
2023-04-22T05:49:20.316Z,1002.83
2023-04-22T05:50:21.253Z,1002.89
2023-04-22T05:51:20.346Z,1002.87
2023-04-22T05:52:20.372Z,1002.89
2023-04-22T05:53:20.397Z,1002.89
2023-04-22T05:54:20.428Z,1002.89
2023-04-22T05:55:20.439Z,1002.85
2023-04-22T05:56:20.469Z,1002.83
2023-04-22T05:57:20.492Z,1002.85
2023-04-22T05:58:20.519Z,1002.85
2023-04-22T05:59:21.838Z,1002.85
2023-04-22T06:00:20.582Z,1002.85
2023-04-22T06:01:20.601Z,1002.83
2023-04-22T06:02:20.779Z,1002.83
2023-04-22T06:03:20.837Z,1002.86
2023-04-22T06:04:20.907Z,1002.89
2023-04-22T06:05:20.753Z,1002.86
2023-04-22T06:06:20.721Z,1002.85
2023-04-22T06:07:20.729Z,1002.85
2023-04-22T06:08:21.059Z,1002.81
2023-04-22T06:09:20.783Z,1002.78
2023-04-22T06:10:20.800Z,1002.76
2023-04-22T06:11:20.836Z,1002.78
2023-04-22T06:12:20.896Z,1002.74
2023-04-22T06:13:20.868Z,1002.74
2023-04-22T06:14:20.900Z,1002.68
2023-04-22T06:15:20.927Z,1002.69
2023-04-22T06:16:20.948Z,1002.71
2023-04-22T06:17:20.992Z,1002.68
2023-04-22T06:18:21.012Z,1002.66
2023-04-22T06:19:21.022Z,1002.66
2023-04-22T06:20:21.045Z,1002.63
2023-04-22T06:21:21.070Z,1002.65
2023-04-22T06:22:21.095Z,1002.62
2023-04-22T06:23:21.117Z,1002.65
2023-04-22T06:24:21.147Z,1002.69
2023-04-22T06:25:21.175Z,1002.65
2023-04-22T06:26:21.202Z,1002.68
2023-04-22T06:27:21.235Z,1002.65
2023-04-22T06:28:21.239Z,1002.65
2023-04-22T06:29:21.276Z,1002.66
2023-04-22T06:30:21.294Z,1002.60
2023-04-22T06:31:21.452Z,1002.64
2023-04-22T06:32:21.343Z,1002.67
2023-04-22T06:33:21.370Z,1002.71
2023-04-22T06:34:21.395Z,1002.64
2023-04-22T06:35:21.418Z,1002.64
2023-04-22T06:36:21.448Z,1002.65
2023-04-22T06:37:21.471Z,1002.64
2023-04-22T06:38:21.503Z,1002.61
2023-04-22T06:39:21.531Z,1002.63
2023-04-22T06:40:21.555Z,1002.60
2023-04-22T06:41:21.608Z,1002.59
2023-04-22T06:42:21.594Z,1002.62
2023-04-22T06:43:21.619Z,1002.59
2023-04-22T06:44:21.645Z,1002.63
2023-04-22T06:45:21.675Z,1002.60
2023-04-22T06:46:21.716Z,1002.58
2023-04-22T06:47:21.763Z,1002.63
2023-04-22T06:48:21.746Z,1002.59
2023-04-22T06:49:21.784Z,1002.56
2023-04-22T06:50:21.797Z,1002.61
2023-04-22T06:51:21.822Z,1002.60
2023-04-22T06:52:23.491Z,1002.61
2023-04-22T06:53:21.872Z,1002.61
2023-04-22T06:54:21.941Z,1002.60
2023-04-22T06:55:21.939Z,1002.64
2023-04-22T06:56:21.956Z,1002.65
2023-04-22T06:57:21.976Z,1002.63
2023-04-22T06:58:22.481Z,1002.65
2023-04-22T06:59:22.041Z,1002.64
2023-04-22T07:00:22.251Z,1002.71
2023-04-22T07:01:22.075Z,1002.68
2023-04-22T07:02:22.196Z,1002.72
2023-04-22T07:03:22.255Z,1002.73
2023-04-22T07:04:22.180Z,1002.72
2023-04-22T07:05:22.183Z,1002.81
2023-04-22T07:06:22.207Z,1002.79
2023-04-22T07:07:22.231Z,1002.75
2023-04-22T07:08:22.261Z,1002.77
2023-04-22T07:09:22.282Z,1002.78
2023-04-22T07:10:22.308Z,1002.81
2023-04-22T07:11:22.342Z,1002.77
2023-04-22T07:12:22.388Z,1002.73
2023-04-22T07:13:22.387Z,1002.76
2023-04-22T07:14:22.428Z,1002.73
2023-04-22T07:15:22.436Z,1002.71
2023-04-22T07:16:22.487Z,1002.74
2023-04-22T07:17:22.574Z,1002.74
2023-04-22T07:18:22.509Z,1002.71
2023-04-22T07:19:22.556Z,1002.70
2023-04-22T07:20:22.611Z,1002.71
2023-04-22T07:21:22.605Z,1002.66
2023-04-22T07:22:22.641Z,1002.61
2023-04-22T07:23:22.666Z,1002.64
2023-04-22T07:24:22.697Z,1002.67
2023-04-22T07:25:22.712Z,1002.65
2023-04-22T07:26:22.759Z,1002.68
2023-04-22T07:27:22.776Z,1002.72
2023-04-22T07:28:22.810Z,1002.69
2023-04-22T07:29:22.824Z,1002.68
2023-04-22T07:30:22.848Z,1002.67
2023-04-22T07:31:22.886Z,1002.66
2023-04-22T07:32:22.938Z,1002.62
2023-04-22T07:33:22.920Z,1002.69
2023-04-22T07:34:22.948Z,1002.66
2023-04-22T07:35:22.977Z,1002.63
2023-04-22T07:36:23.007Z,1002.63
2023-04-22T07:37:23.032Z,1002.64
2023-04-22T07:38:23.075Z,1002.60
2023-04-22T07:39:23.066Z,1002.68
2023-04-22T07:40:23.112Z,1002.65
2023-04-22T07:41:23.152Z,1002.67
2023-04-22T07:42:23.162Z,1002.67
2023-04-22T07:43:23.211Z,1002.65
2023-04-22T07:44:23.218Z,1002.64
2023-04-22T07:45:23.236Z,1002.60
2023-04-22T07:46:23.428Z,1002.62
2023-04-22T07:47:23.358Z,1002.62
2023-04-22T07:48:23.317Z,1002.66
2023-04-22T07:49:23.346Z,1002.61
2023-04-22T07:50:23.393Z,1002.62
2023-04-22T07:51:23.393Z,1002.60
2023-04-22T07:52:23.430Z,1002.57
2023-04-22T07:53:23.454Z,1002.62
2023-04-22T07:54:23.489Z,1002.52
2023-04-22T07:55:23.549Z,1002.54
2023-04-22T07:56:23.541Z,1002.56
2023-04-22T07:57:23.553Z,1002.54
2023-04-22T07:58:23.617Z,1002.54
2023-04-22T07:59:23.609Z,1002.53
2023-04-22T08:00:23.637Z,1002.51
2023-04-22T08:01:23.714Z,1002.51
2023-04-22T08:02:23.808Z,1002.50
2023-04-22T08:03:23.884Z,1002.51
2023-04-22T08:04:24.152Z,1002.50
2023-04-22T08:05:23.880Z,1002.50
2023-04-22T08:06:23.806Z,1002.49
2023-04-22T08:07:32.552Z,1002.48
2023-04-22T08:08:23.872Z,1002.48
2023-04-22T08:09:23.914Z,1002.52
2023-04-22T08:10:23.920Z,1002.53
2023-04-22T08:11:23.952Z,1002.53
2023-04-22T08:12:23.979Z,1002.46
2023-04-22T08:13:24.012Z,1002.49
2023-04-22T08:14:24.032Z,1002.54
2023-04-22T08:15:24.069Z,1002.52
2023-04-22T08:16:24.151Z,1002.51
2023-04-22T08:17:24.139Z,1002.49
2023-04-22T08:18:24.155Z,1002.52
2023-04-22T08:19:24.193Z,1002.51
2023-04-22T08:20:24.215Z,1002.52
2023-04-22T08:21:24.230Z,1002.52
2023-04-22T08:22:24.258Z,1002.49
2023-04-22T08:23:24.288Z,1002.47
2023-04-22T08:24:24.342Z,1002.47
2023-04-22T08:25:24.345Z,1002.52
2023-04-22T08:26:24.384Z,1002.51
2023-04-22T08:27:24.402Z,1002.50
2023-04-22T08:28:24.428Z,1002.47
2023-04-22T08:29:24.457Z,1002.46
2023-04-22T08:30:24.492Z,1002.46
2023-04-22T08:31:24.543Z,1002.41
2023-04-22T08:32:24.573Z,1002.39
2023-04-22T08:33:27.035Z,1002.44
2023-04-22T08:34:24.602Z,1002.43
2023-04-22T08:35:24.627Z,1002.44
2023-04-22T08:36:24.661Z,1002.46
2023-04-22T08:37:24.688Z,1002.42
2023-04-22T08:38:24.717Z,1002.43
2023-04-22T08:39:24.752Z,1002.44
2023-04-22T08:40:24.780Z,1002.48
2023-04-22T08:41:24.803Z,1002.44
2023-04-22T08:42:24.842Z,1002.46
2023-04-22T08:43:24.866Z,1002.43
2023-04-22T08:44:24.895Z,1002.47
2023-04-22T08:45:24.923Z,1002.49
2023-04-22T08:46:24.981Z,1002.45
2023-04-22T08:47:25.013Z,1002.45
2023-04-22T08:48:25.011Z,1002.40
2023-04-22T08:49:25.060Z,1002.39
2023-04-22T08:50:25.073Z,1002.32
2023-04-22T08:51:25.103Z,1002.31
2023-04-22T08:52:25.133Z,1002.25
2023-04-22T08:53:25.248Z,1002.25
2023-04-22T08:54:25.189Z,1002.21
2023-04-22T08:55:25.223Z,1002.23
2023-04-22T08:56:25.250Z,1002.18
2023-04-22T08:57:25.278Z,1002.22
2023-04-22T08:58:25.323Z,1002.21
2023-04-22T08:59:25.341Z,1002.16
2023-04-22T09:00:25.369Z,1002.16
2023-04-22T09:01:25.421Z,1002.14
2023-04-22T09:02:25.484Z,1002.12
2023-04-22T09:03:25.508Z,1002.12
2023-04-22T09:04:25.581Z,1002.05
2023-04-22T09:05:27.688Z,1002.08
2023-04-22T09:06:25.550Z,1002.04
2023-04-22T09:07:25.586Z,1002.07
2023-04-22T09:08:25.603Z,1002.12
2023-04-22T09:09:25.640Z,1002.03
2023-04-22T09:10:25.664Z,1002.04
2023-04-22T09:11:25.694Z,1002.05
2023-04-22T09:12:25.723Z,1001.99
2023-04-22T09:13:25.767Z,1002.02
2023-04-22T09:14:25.807Z,1002.01
2023-04-22T09:15:25.841Z,1001.98
2023-04-22T09:16:25.872Z,1001.96
2023-04-22T09:17:25.912Z,1001.98
2023-04-22T09:18:25.926Z,1001.98
2023-04-22T09:19:25.960Z,1001.97
2023-04-22T09:20:25.967Z,1001.99
2023-04-22T09:21:25.989Z,1001.94
2023-04-22T09:22:26.015Z,1001.95
2023-04-22T09:23:26.051Z,1001.93
2023-04-22T09:24:26.076Z,1001.96
2023-04-22T09:25:26.102Z,1001.97
2023-04-22T09:26:26.194Z,1001.95
2023-04-22T09:27:26.161Z,1001.97
2023-04-22T09:28:26.192Z,1001.96
2023-04-22T09:29:26.227Z,1001.93
2023-04-22T09:30:26.261Z,1001.96
2023-04-22T09:31:26.338Z,1001.95
2023-04-22T09:32:26.372Z,1001.92
2023-04-22T09:33:26.333Z,1001.89
2023-04-22T09:34:26.393Z,1001.93
2023-04-22T09:35:26.400Z,1001.94
2023-04-22T09:36:26.422Z,1001.95
2023-04-22T09:37:33.052Z,1001.95
2023-04-22T09:38:26.482Z,1001.92
2023-04-22T09:39:26.515Z,1001.93
2023-04-22T09:40:26.573Z,1001.93
2023-04-22T09:41:26.572Z,1001.95
2023-04-22T09:42:26.602Z,1002.02
2023-04-22T09:43:26.643Z,1001.98
2023-04-22T09:44:26.658Z,1001.94
2023-04-22T09:45:26.688Z,1001.98
2023-04-22T09:46:26.746Z,1001.98
2023-04-22T09:47:26.758Z,1001.92
2023-04-22T09:48:26.772Z,1001.92
2023-04-22T09:49:26.808Z,1001.89
2023-04-22T09:50:26.837Z,1001.92
2023-04-22T09:51:26.867Z,1001.96
2023-04-22T09:52:26.977Z,1001.90
2023-04-22T09:53:26.930Z,1001.87
2023-04-22T09:54:26.956Z,1001.87
2023-04-22T09:55:26.986Z,1001.85
2023-04-22T09:56:27.015Z,1001.79
2023-04-22T09:57:27.047Z,1001.82
2023-04-22T09:58:27.076Z,1001.80
2023-04-22T09:59:27.105Z,1001.82
2023-04-22T10:00:27.132Z,1001.76
2023-04-22T10:01:27.209Z,1001.76
2023-04-22T10:02:27.250Z,1001.77
2023-04-22T10:03:27.305Z,1001.74
2023-04-22T10:04:27.295Z,1001.72
2023-04-22T10:05:27.288Z,1001.69
2023-04-22T10:06:27.318Z,1001.69
2023-04-22T10:07:27.348Z,1001.70
2023-04-22T10:08:27.370Z,1001.65
2023-04-22T10:09:27.412Z,1001.70
2023-04-22T10:10:27.439Z,1001.69
2023-04-22T10:11:27.466Z,1001.66
2023-04-22T10:12:35.385Z,1001.67
2023-04-22T10:13:27.544Z,1001.65
2023-04-22T10:14:27.565Z,1001.63
2023-04-22T10:15:27.605Z,1001.66
2023-04-22T10:16:27.657Z,1001.65
2023-04-22T10:17:27.670Z,1001.64
2023-04-22T10:18:27.680Z,1001.62
2023-04-22T10:19:27.718Z,1001.60
2023-04-22T10:20:27.744Z,1001.60
2023-04-22T10:21:27.803Z,1001.60
2023-04-22T10:22:27.810Z,1001.52
2023-04-22T10:23:27.833Z,1001.52
2023-04-22T10:24:27.868Z,1001.50
2023-04-22T10:25:27.895Z,1001.49
2023-04-22T10:26:27.926Z,1001.46
2023-04-22T10:27:27.955Z,1001.48
2023-04-22T10:28:27.985Z,1001.43
2023-04-22T10:29:28.033Z,1001.40
2023-04-22T10:30:28.046Z,1001.34
2023-04-22T10:31:28.155Z,1001.32
2023-04-22T10:32:28.123Z,1001.30
2023-04-22T10:33:28.140Z,1001.24
2023-04-22T10:34:28.204Z,1001.29
2023-04-22T10:35:28.210Z,1001.23
2023-04-22T10:36:28.233Z,1001.25
2023-04-22T10:37:28.264Z,1001.23
2023-04-22T10:38:28.398Z,1001.26
2023-04-22T10:39:28.344Z,1001.24
2023-04-22T10:40:28.364Z,1001.19
2023-04-22T10:41:28.395Z,1001.25
2023-04-22T10:42:28.428Z,1001.20
2023-04-22T10:43:28.456Z,1001.22
2023-04-22T10:44:28.483Z,1001.21
2023-04-22T10:45:28.517Z,1001.20
2023-04-22T10:46:28.580Z,1001.19
2023-04-22T10:47:28.641Z,1001.14
2023-04-22T10:48:28.609Z,1001.16
2023-04-22T10:49:28.653Z,1001.12
2023-04-22T10:50:28.701Z,1001.11
2023-04-22T10:51:28.705Z,1001.09
2023-04-22T10:52:28.749Z,1001.06
2023-04-22T10:53:28.770Z,1001.02
2023-04-22T10:54:31.899Z,1001.06
2023-04-22T10:55:28.844Z,1001.08
2023-04-22T10:56:28.887Z,1001.06
2023-04-22T10:57:28.895Z,1001.04
2023-04-22T10:58:28.929Z,1001.07
2023-04-22T10:59:28.980Z,1001.05
2023-04-22T11:00:35.322Z,1001.01
2023-04-22T11:01:29.042Z,1000.99
2023-04-22T11:02:29.252Z,1000.96
2023-04-22T11:03:29.938Z,1000.95
2023-04-22T11:04:29.185Z,1000.99
2023-04-22T11:05:29.154Z,1000.98
2023-04-22T11:06:29.181Z,1000.96
2023-04-22T11:07:29.230Z,1000.92
2023-04-22T11:08:29.257Z,1000.98
2023-04-22T11:09:29.278Z,1000.93
2023-04-22T11:10:29.306Z,1000.93
2023-04-22T11:11:29.342Z,1000.96
2023-04-22T11:12:29.370Z,1000.92
2023-04-22T11:13:29.409Z,1000.84
2023-04-22T11:14:29.435Z,1000.94
2023-04-22T11:15:29.465Z,1000.84
2023-04-22T11:16:29.522Z,1000.81
2023-04-22T11:17:29.606Z,1000.84
2023-04-22T11:18:29.561Z,1000.83
2023-04-22T11:19:29.594Z,1000.81
2023-04-22T11:20:29.626Z,1000.77
2023-04-22T11:21:29.657Z,1000.80
2023-04-22T11:22:29.685Z,1000.82
2023-04-22T11:23:29.716Z,1000.80
2023-04-22T11:24:29.750Z,1000.76
2023-04-22T11:25:29.791Z,1000.81
2023-04-22T11:26:29.814Z,1000.82
2023-04-22T11:27:29.847Z,1000.76
2023-04-22T11:28:29.878Z,1000.72
2023-04-22T11:29:29.910Z,1000.78
2023-04-22T11:30:29.941Z,1000.78
2023-04-22T11:31:30.015Z,1000.76
2023-04-22T11:32:30.043Z,1000.78
2023-04-22T11:33:30.034Z,1000.75
2023-04-22T11:34:30.059Z,1000.68
2023-04-22T11:35:30.119Z,1000.71
2023-04-22T11:36:30.136Z,1000.68
2023-04-22T11:37:30.161Z,1000.70
2023-04-22T11:38:30.196Z,1000.72
2023-04-22T11:39:30.231Z,1000.72
2023-04-22T11:40:31.805Z,1000.71
2023-04-22T11:41:30.311Z,1000.70
2023-04-22T11:42:30.320Z,1000.72
2023-04-22T11:43:30.352Z,1000.72
2023-04-22T11:44:30.382Z,1000.69
2023-04-22T11:45:30.436Z,1000.65
2023-04-22T11:46:30.518Z,1000.71
2023-04-22T11:47:30.516Z,1000.69
2023-04-22T11:48:30.521Z,1000.70
2023-04-22T11:49:30.544Z,1000.75
2023-04-22T11:50:30.583Z,1000.74
2023-04-22T11:51:30.605Z,1000.76
2023-04-22T11:52:30.638Z,1000.73
2023-04-22T11:53:30.666Z,1000.74
2023-04-22T11:54:30.700Z,1000.77
2023-04-22T11:55:30.729Z,1000.74
2023-04-22T11:56:30.764Z,1000.72
2023-04-22T11:57:31.753Z,1000.74
2023-04-22T11:58:30.830Z,1000.62
2023-04-22T11:59:30.856Z,1000.61
2023-04-22T12:00:30.924Z,1000.66
2023-04-22T12:01:30.925Z,1000.62
2023-04-22T12:02:31.060Z,1000.60
2023-04-22T12:03:31.380Z,1000.64
2023-04-22T12:04:31.012Z,1000.60
2023-04-22T12:05:31.188Z,1000.60